sensor_id;sensor_type;location;lat;lon;timestamp;P1;durP1;ratioP1;P2;durP2;ratioP2
59006;SDS011;44792;52.760;6.726;2023-08-21T00:01:21;7.32;;;1.65;;
59006;SDS011;44792;52.760;6.726;2023-08-21T00:03:46;5.40;;;1.33;;
59006;SDS011;44792;52.760;6.726;2023-08-21T00:06:12;3.30;;;1.30;;
59006;SDS011;44792;52.760;6.726;2023-08-21T00:08:38;3.10;;;1.23;;
59006;SDS011;44792;52.760;6.726;2023-08-21T00:11:04;9.43;;;1.70;;
59006;SDS011;44792;52.760;6.726;2023-08-21T00:13:29;3.78;;;1.60;;
59006;SDS011;44792;52.760;6.726;2023-08-21T00:15:55;7.00;;;1.83;;
59006;SDS011;44792;52.760;6.726;2023-08-21T00:18:21;4.90;;;1.75;;
59006;SDS011;44792;52.760;6.726;2023-08-21T00:20:47;4.88;;;1.73;;
59006;SDS011;44792;52.760;6.726;2023-08-21T00:23:13;7.05;;;2.20;;
59006;SDS011;44792;52.760;6.726;2023-08-21T00:25:38;4.47;;;1.90;;
59006;SDS011;44792;52.760;6.726;2023-08-21T00:28:04;4.60;;;1.90;;
59006;SDS011;44792;52.760;6.726;2023-08-21T00:30:30;4.82;;;1.63;;
59006;SDS011;44792;52.760;6.726;2023-08-21T00:32:56;4.13;;;1.75;;
59006;SDS011;44792;52.760;6.726;2023-08-21T00:35:22;6.53;;;2.00;;
59006;SDS011;44792;52.760;6.726;2023-08-21T00:37:47;5.60;;;1.80;;
59006;SDS011;44792;52.760;6.726;2023-08-21T00:40:13;6.82;;;2.00;;
59006;SDS011;44792;52.760;6.726;2023-08-21T00:42:39;8.15;;;2.00;;
59006;SDS011;44792;52.760;6.726;2023-08-21T00:45:05;5.03;;;1.70;;
59006;SDS011;44792;52.760;6.726;2023-08-21T00:47:33;3.83;;;2.00;;
59006;SDS011;44792;52.760;6.726;2023-08-21T00:50:02;3.90;;;1.88;;
59006;SDS011;44792;52.760;6.726;2023-08-21T00:52:31;3.50;;;1.80;;
59006;SDS011;44792;52.760;6.726;2023-08-21T00:54:56;4.65;;;2.15;;
59006;SDS011;44792;52.760;6.726;2023-08-21T00:57:23;3.47;;;1.92;;
59006;SDS011;44792;52.760;6.726;2023-08-21T00:59:49;6.00;;;1.90;;
59006;SDS011;44792;52.760;6.726;2023-08-21T01:02:15;4.85;;;1.83;;
59006;SDS011;44792;52.760;6.726;2023-08-21T01:04:41;4.90;;;2.00;;
59006;SDS011;44792;52.760;6.726;2023-08-21T01:07:07;4.28;;;2.10;;
59006;SDS011;44792;52.760;6.726;2023-08-21T01:14:50;2.58;;;1.40;;
59006;SDS011;44792;52.760;6.726;2023-08-21T01:17:24;2.88;;;1.50;;
59006;SDS011;44792;52.760;6.726;2023-08-21T01:19:51;3.58;;;1.98;;
59006;SDS011;44792;52.760;6.726;2023-08-21T01:22:18;3.63;;;1.80;;
59006;SDS011;44792;52.760;6.726;2023-08-21T01:24:44;3.63;;;1.52;;
59006;SDS011;44792;52.760;6.726;2023-08-21T01:27:10;6.85;;;1.60;;
59006;SDS011;44792;52.760;6.726;2023-08-21T01:29:37;2.15;;;1.50;;
59006;SDS011;44792;52.760;6.726;2023-08-21T01:32:08;5.30;;;1.60;;
59006;SDS011;44792;52.760;6.726;2023-08-21T01:34:42;4.85;;;1.90;;
59006;SDS011;44792;52.760;6.726;2023-08-21T01:37:09;6.53;;;2.10;;
59006;SDS011;44792;52.760;6.726;2023-08-21T01:39:36;4.28;;;1.63;;
59006;SDS011;44792;52.760;6.726;2023-08-21T01:42:02;2.85;;;1.58;;
59006;SDS011;44792;52.760;6.726;2023-08-21T01:44:27;4.30;;;1.90;;
59006;SDS011;44792;52.760;6.726;2023-08-21T01:46:53;5.40;;;2.33;;
59006;SDS011;44792;52.760;6.726;2023-08-21T01:49:19;3.70;;;1.98;;
59006;SDS011;44792;52.760;6.726;2023-08-21T01:51:45;8.07;;;1.88;;
59006;SDS011;44792;52.760;6.726;2023-08-21T01:54:11;3.08;;;1.50;;
59006;SDS011;44792;52.760;6.726;2023-08-21T01:56:37;4.72;;;1.80;;
59006;SDS011;44792;52.760;6.726;2023-08-21T01:59:04;6.55;;;2.20;;
59006;SDS011;44792;52.760;6.726;2023-08-21T02:01:30;4.93;;;1.98;;
59006;SDS011;44792;52.760;6.726;2023-08-21T02:03:55;3.15;;;1.95;;
59006;SDS011;44792;52.760;6.726;2023-08-21T02:06:21;5.03;;;2.00;;
59006;SDS011;44792;52.760;6.726;2023-08-21T02:08:48;6.38;;;1.85;;
59006;SDS011;44792;52.760;6.726;2023-08-21T02:11:14;3.55;;;1.95;;
59006;SDS011;44792;52.760;6.726;2023-08-21T02:13:40;3.65;;;1.52;;
59006;SDS011;44792;52.760;6.726;2023-08-21T02:16:06;3.97;;;1.70;;
59006;SDS011;44792;52.760;6.726;2023-08-21T02:18:32;6.57;;;2.47;;
59006;SDS011;44792;52.760;6.726;2023-08-21T02:21:00;3.10;;;1.77;;
59006;SDS011;44792;52.760;6.726;2023-08-21T02:23:26;3.72;;;1.85;;
59006;SDS011;44792;52.760;6.726;2023-08-21T02:25:53;2.92;;;1.75;;
59006;SDS011;44792;52.760;6.726;2023-08-21T02:28:18;4.43;;;1.88;;
59006;SDS011;44792;52.760;6.726;2023-08-21T02:30:44;2.72;;;1.63;;
59006;SDS011;44792;52.760;6.726;2023-08-21T02:33:10;2.58;;;1.92;;
59006;SDS011;44792;52.760;6.726;2023-08-21T02:35:36;1.60;;;1.50;;
59006;SDS011;44792;52.760;6.726;2023-08-21T02:38:02;5.05;;;1.80;;
59006;SDS011;44792;52.760;6.726;2023-08-21T02:40:28;2.25;;;1.50;;
59006;SDS011;44792;52.760;6.726;2023-08-21T02:42:53;5.55;;;1.80;;
59006;SDS011;44792;52.760;6.726;2023-08-21T02:45:19;5.35;;;1.80;;
59006;SDS011;44792;52.760;6.726;2023-08-21T02:47:45;5.30;;;2.10;;
59006;SDS011;44792;52.760;6.726;2023-08-21T02:50:11;5.45;;;2.03;;
59006;SDS011;44792;52.760;6.726;2023-08-21T02:52:37;1.92;;;1.58;;
59006;SDS011;44792;52.760;6.726;2023-08-21T02:55:03;3.35;;;1.52;;
59006;SDS011;44792;52.760;6.726;2023-08-21T02:57:30;3.58;;;1.92;;
59006;SDS011;44792;52.760;6.726;2023-08-21T02:59:55;3.67;;;1.85;;
59006;SDS011;44792;52.760;6.726;2023-08-21T03:02:21;4.13;;;1.65;;
59006;SDS011;44792;52.760;6.726;2023-08-21T03:04:48;2.88;;;1.67;;
59006;SDS011;44792;52.760;6.726;2023-08-21T03:07:14;5.00;;;1.92;;
59006;SDS011;44792;52.760;6.726;2023-08-21T03:09:40;4.32;;;1.95;;
59006;SDS011;44792;52.760;6.726;2023-08-21T03:12:07;1.98;;;1.70;;
59006;SDS011;44792;52.760;6.726;2023-08-21T03:14:33;4.60;;;1.90;;
59006;SDS011;44792;52.760;6.726;2023-08-21T03:16:59;2.47;;;1.42;;
59006;SDS011;44792;52.760;6.726;2023-08-21T03:19:25;2.45;;;2.10;;
59006;SDS011;44792;52.760;6.726;2023-08-21T03:21:51;3.33;;;1.95;;
59006;SDS011;44792;52.760;6.726;2023-08-21T03:24:17;7.68;;;1.98;;
59006;SDS011;44792;52.760;6.726;2023-08-21T03:26:43;6.22;;;1.58;;
59006;SDS011;44792;52.760;6.726;2023-08-21T03:29:09;1.75;;;1.60;;
59006;SDS011;44792;52.760;6.726;2023-08-21T03:31:34;2.92;;;1.70;;
59006;SDS011;44792;52.760;6.726;2023-08-21T03:34:00;3.70;;;2.17;;
59006;SDS011;44792;52.760;6.726;2023-08-21T03:36:26;3.30;;;2.40;;
59006;SDS011;44792;52.760;6.726;2023-08-21T03:38:58;2.60;;;1.92;;
59006;SDS011;44792;52.760;6.726;2023-08-21T03:41:27;4.20;;;2.20;;
59006;SDS011;44792;52.760;6.726;2023-08-21T03:43:53;4.15;;;2.00;;
59006;SDS011;44792;52.760;6.726;2023-08-21T03:46:19;1.80;;;1.65;;
59006;SDS011;44792;52.760;6.726;2023-08-21T03:48:45;5.30;;;2.15;;
59006;SDS011;44792;52.760;6.726;2023-08-21T03:51:10;4.50;;;1.85;;
59006;SDS011;44792;52.760;6.726;2023-08-21T03:56:02;5.18;;;1.92;;
59006;SDS011;44792;52.760;6.726;2023-08-21T03:58:28;4.70;;;1.98;;
59006;SDS011;44792;52.760;6.726;2023-08-21T04:00:53;3.75;;;1.88;;
59006;SDS011;44792;52.760;6.726;2023-08-21T04:03:19;2.00;;;1.50;;
59006;SDS011;44792;52.760;6.726;2023-08-21T04:05:46;2.92;;;1.70;;
59006;SDS011;44792;52.760;6.726;2023-08-21T04:08:12;4.47;;;1.80;;
59006;SDS011;44792;52.760;6.726;2023-08-21T04:10:38;3.63;;;1.98;;
59006;SDS011;44792;52.760;6.726;2023-08-21T04:13:04;6.40;;;2.13;;
59006;SDS011;44792;52.760;6.726;2023-08-21T04:15:30;6.25;;;2.05;;
59006;SDS011;44792;52.760;6.726;2023-08-21T04:17:56;4.70;;;2.08;;
59006;SDS011;44792;52.760;6.726;2023-08-21T04:20:22;3.72;;;1.70;;
59006;SDS011;44792;52.760;6.726;2023-08-21T04:22:48;5.78;;;1.85;;
59006;SDS011;44792;52.760;6.726;2023-08-21T04:25:14;5.50;;;1.88;;
59006;SDS011;44792;52.760;6.726;2023-08-21T04:27:41;2.60;;;1.85;;
59006;SDS011;44792;52.760;6.726;2023-08-21T04:30:08;3.28;;;2.13;;
59006;SDS011;44792;52.760;6.726;2023-08-21T04:32:35;2.05;;;1.88;;
59006;SDS011;44792;52.760;6.726;2023-08-21T04:35:00;3.95;;;1.83;;
59006;SDS011;44792;52.760;6.726;2023-08-21T04:37:26;3.03;;;1.85;;
59006;SDS011;44792;52.760;6.726;2023-08-21T04:39:55;6.70;;;1.90;;
59006;SDS011;44792;52.760;6.726;2023-08-21T04:42:21;3.75;;;2.38;;
59006;SDS011;44792;52.760;6.726;2023-08-21T04:44:47;3.85;;;1.70;;
59006;SDS011;44792;52.760;6.726;2023-08-21T04:47:24;6.22;;;1.77;;
59006;SDS011;44792;52.760;6.726;2023-08-21T04:49:51;2.10;;;1.60;;
59006;SDS011;44792;52.760;6.726;2023-08-21T04:52:18;5.10;;;1.60;;
59006;SDS011;44792;52.760;6.726;2023-08-21T04:54:44;4.00;;;1.98;;
59006;SDS011;44792;52.760;6.726;2023-08-21T04:57:10;2.78;;;1.65;;
59006;SDS011;44792;52.760;6.726;2023-08-21T04:59:36;3.15;;;1.52;;
59006;SDS011;44792;52.760;6.726;2023-08-21T05:02:02;4.55;;;2.08;;
59006;SDS011;44792;52.760;6.726;2023-08-21T05:04:28;3.10;;;1.70;;
59006;SDS011;44792;52.760;6.726;2023-08-21T05:06:54;3.85;;;2.00;;
59006;SDS011;44792;52.760;6.726;2023-08-21T05:09:20;3.33;;;1.63;;
59006;SDS011;44792;52.760;6.726;2023-08-21T05:11:46;3.00;;;2.30;;
59006;SDS011;44792;52.760;6.726;2023-08-21T05:14:11;2.38;;;1.88;;
59006;SDS011;44792;52.760;6.726;2023-08-21T05:16:37;3.95;;;1.52;;
59006;SDS011;44792;52.760;6.726;2023-08-21T05:19:03;4.90;;;1.70;;
59006;SDS011;44792;52.760;6.726;2023-08-21T05:21:28;3.20;;;1.85;;
59006;SDS011;44792;52.760;6.726;2023-08-21T05:23:54;4.20;;;1.60;;
59006;SDS011;44792;52.760;6.726;2023-08-21T05:26:20;3.80;;;1.90;;
59006;SDS011;44792;52.760;6.726;2023-08-21T05:28:46;5.50;;;2.00;;
59006;SDS011;44792;52.760;6.726;2023-08-21T05:31:12;4.18;;;1.60;;
59006;SDS011;44792;52.760;6.726;2023-08-21T05:33:37;3.58;;;1.75;;
59006;SDS011;44792;52.760;6.726;2023-08-21T05:36:04;2.40;;;1.42;;
59006;SDS011;44792;52.760;6.726;2023-08-21T05:38:30;5.82;;;1.60;;
59006;SDS011;44792;52.760;6.726;2023-08-21T05:40:56;4.75;;;1.50;;
59006;SDS011;44792;52.760;6.726;2023-08-21T05:43:23;2.88;;;1.40;;
59006;SDS011;44792;52.760;6.726;2023-08-21T05:45:49;3.58;;;1.60;;
59006;SDS011;44792;52.760;6.726;2023-08-21T05:48:15;3.80;;;1.55;;
59006;SDS011;44792;52.760;6.726;2023-08-21T05:50:41;2.47;;;1.73;;
59006;SDS011;44792;52.760;6.726;2023-08-21T05:53:08;2.92;;;2.03;;
59006;SDS011;44792;52.760;6.726;2023-08-21T05:55:35;3.53;;;1.80;;
59006;SDS011;44792;52.760;6.726;2023-08-21T05:58:02;3.20;;;1.95;;
59006;SDS011;44792;52.760;6.726;2023-08-21T06:00:28;4.80;;;2.58;;
59006;SDS011;44792;52.760;6.726;2023-08-21T06:02:54;5.93;;;2.75;;
59006;SDS011;44792;52.760;6.726;2023-08-21T06:05:20;3.67;;;2.03;;
59006;SDS011;44792;52.760;6.726;2023-08-21T06:07:45;5.38;;;2.28;;
59006;SDS011;44792;52.760;6.726;2023-08-21T06:10:11;6.32;;;2.28;;
59006;SDS011;44792;52.760;6.726;2023-08-21T06:12:40;3.42;;;2.30;;
59006;SDS011;44792;52.760;6.726;2023-08-21T06:15:06;10.30;;;2.85;;
59006;SDS011;44792;52.760;6.726;2023-08-21T06:17:34;6.47;;;2.70;;
59006;SDS011;44792;52.760;6.726;2023-08-21T06:19:59;7.47;;;2.97;;
59006;SDS011;44792;52.760;6.726;2023-08-21T06:22:25;5.88;;;2.40;;
59006;SDS011;44792;52.760;6.726;2023-08-21T06:24:51;7.82;;;2.45;;
59006;SDS011;44792;52.760;6.726;2023-08-21T06:27:17;5.95;;;2.58;;
59006;SDS011;44792;52.760;6.726;2023-08-21T06:29:42;5.93;;;2.40;;
59006;SDS011;44792;52.760;6.726;2023-08-21T06:32:08;7.28;;;2.92;;
59006;SDS011;44792;52.760;6.726;2023-08-21T06:34:34;6.97;;;2.38;;
59006;SDS011;44792;52.760;6.726;2023-08-21T06:37:00;10.93;;;2.90;;
59006;SDS011;44792;52.760;6.726;2023-08-21T06:39:26;7.28;;;2.60;;
59006;SDS011;44792;52.760;6.726;2023-08-21T06:41:52;6.45;;;3.00;;
59006;SDS011;44792;52.760;6.726;2023-08-21T06:44:18;6.75;;;2.53;;
59006;SDS011;44792;52.760;6.726;2023-08-21T06:46:43;6.97;;;2.97;;
59006;SDS011;44792;52.760;6.726;2023-08-21T06:49:09;10.68;;;3.03;;
59006;SDS011;44792;52.760;6.726;2023-08-21T06:51:35;7.72;;;2.47;;
59006;SDS011;44792;52.760;6.726;2023-08-21T06:54:01;5.15;;;2.33;;
59006;SDS011;44792;52.760;6.726;2023-08-21T06:56:26;9.43;;;2.38;;
59006;SDS011;44792;52.760;6.726;2023-08-21T06:58:52;7.18;;;2.78;;
59006;SDS011;44792;52.760;6.726;2023-08-21T07:01:20;8.70;;;2.70;;
59006;SDS011;44792;52.760;6.726;2023-08-21T07:03:46;7.97;;;2.83;;
59006;SDS011;44792;52.760;6.726;2023-08-21T07:06:12;6.45;;;2.30;;
59006;SDS011;44792;52.760;6.726;2023-08-21T07:08:38;7.10;;;2.50;;
59006;SDS011;44792;52.760;6.726;2023-08-21T07:11:05;8.15;;;2.70;;
59006;SDS011;44792;52.760;6.726;2023-08-21T07:13:35;9.82;;;2.95;;
59006;SDS011;44792;52.760;6.726;2023-08-21T07:16:01;10.43;;;2.70;;
59006;SDS011;44792;52.760;6.726;2023-08-21T07:18:28;6.82;;;2.75;;
59006;SDS011;44792;52.760;6.726;2023-08-21T07:20:58;12.63;;;2.95;;
59006;SDS011;44792;52.760;6.726;2023-08-21T07:23:24;7.55;;;2.85;;
59006;SDS011;44792;52.760;6.726;2023-08-21T07:25:50;10.23;;;3.13;;
59006;SDS011;44792;52.760;6.726;2023-08-21T07:28:16;6.43;;;2.58;;
59006;SDS011;44792;52.760;6.726;2023-08-21T07:30:42;5.13;;;1.90;;
59006;SDS011;44792;52.760;6.726;2023-08-21T07:33:08;5.50;;;2.17;;
59006;SDS011;44792;52.760;6.726;2023-08-21T07:35:34;8.57;;;2.20;;
59006;SDS011;44792;52.760;6.726;2023-08-21T07:38:01;7.00;;;2.40;;
59006;SDS011;44792;52.760;6.726;2023-08-21T07:40:27;7.53;;;2.33;;
59006;SDS011;44792;52.760;6.726;2023-08-21T07:42:53;4.88;;;1.80;;
59006;SDS011;44792;52.760;6.726;2023-08-21T07:45:19;8.00;;;1.90;;
59006;SDS011;44792;52.760;6.726;2023-08-21T07:47:44;5.40;;;1.95;;
59006;SDS011;44792;52.760;6.726;2023-08-21T07:50:10;5.15;;;1.20;;
59006;SDS011;44792;52.760;6.726;2023-08-21T07:52:36;6.95;;;1.30;;
59006;SDS011;44792;52.760;6.726;2023-08-21T07:55:02;5.88;;;1.63;;
59006;SDS011;44792;52.760;6.726;2023-08-21T07:57:28;5.10;;;1.15;;
59006;SDS011;44792;52.760;6.726;2023-08-21T07:59:54;6.28;;;1.50;;
59006;SDS011;44792;52.760;6.726;2023-08-21T08:02:20;6.15;;;1.80;;
59006;SDS011;44792;52.760;6.726;2023-08-21T08:04:46;7.18;;;2.50;;
59006;SDS011;44792;52.760;6.726;2023-08-21T08:07:12;4.40;;;1.50;;
59006;SDS011;44792;52.760;6.726;2023-08-21T08:09:38;7.18;;;1.70;;
59006;SDS011;44792;52.760;6.726;2023-08-21T08:12:04;5.43;;;2.28;;
59006;SDS011;44792;52.760;6.726;2023-08-21T08:14:31;5.93;;;1.45;;
59006;SDS011;44792;52.760;6.726;2023-08-21T08:16:57;7.60;;;2.00;;
59006;SDS011;44792;52.760;6.726;2023-08-21T08:19:22;10.27;;;1.75;;
59006;SDS011;44792;52.760;6.726;2023-08-21T08:21:48;3.50;;;1.63;;
59006;SDS011;44792;52.760;6.726;2023-08-21T08:24:14;4.40;;;1.40;;
59006;SDS011;44792;52.760;6.726;2023-08-21T08:26:40;6.80;;;1.40;;
59006;SDS011;44792;52.760;6.726;2023-08-21T08:29:07;6.57;;;1.40;;
59006;SDS011;44792;52.760;6.726;2023-08-21T08:31:34;3.75;;;1.90;;
59006;SDS011;44792;52.760;6.726;2023-08-21T08:33:59;4.90;;;1.52;;
59006;SDS011;44792;52.760;6.726;2023-08-21T08:36:25;4.00;;;1.40;;
59006;SDS011;44792;52.760;6.726;2023-08-21T08:38:51;4.85;;;1.65;;
59006;SDS011;44792;52.760;6.726;2023-08-21T08:44:14;3.50;;;1.33;;
59006;SDS011;44792;52.760;6.726;2023-08-21T08:46:42;2.78;;;1.38;;
59006;SDS011;44792;52.760;6.726;2023-08-21T08:49:08;4.90;;;1.55;;
59006;SDS011;44792;52.760;6.726;2023-08-21T08:51:34;5.07;;;1.13;;
59006;SDS011;44792;52.760;6.726;2023-08-21T08:54:02;6.45;;;1.45;;
59006;SDS011;44792;52.760;6.726;2023-08-21T08:56:29;3.63;;;1.27;;
59006;SDS011;44792;52.760;6.726;2023-08-21T08:58:54;9.50;;;2.35;;
59006;SDS011;44792;52.760;6.726;2023-08-21T09:01:20;6.68;;;1.55;;
59006;SDS011;44792;52.760;6.726;2023-08-21T09:03:46;5.13;;;1.80;;
59006;SDS011;44792;52.760;6.726;2023-08-21T09:06:15;6.70;;;2.00;;
59006;SDS011;44792;52.760;6.726;2023-08-21T09:08:47;3.90;;;1.60;;
59006;SDS011;44792;52.760;6.726;2023-08-21T09:11:19;8.90;;;2.22;;
59006;SDS011;44792;52.760;6.726;2023-08-21T09:13:45;6.32;;;1.90;;
59006;SDS011;44792;52.760;6.726;2023-08-21T09:16:13;6.97;;;2.10;;
59006;SDS011;44792;52.760;6.726;2023-08-21T09:21:20;6.35;;;1.88;;
59006;SDS011;44792;52.760;6.726;2023-08-21T09:23:48;4.45;;;2.15;;
59006;SDS011;44792;52.760;6.726;2023-08-21T09:26:25;5.57;;;1.73;;
59006;SDS011;44792;52.760;6.726;2023-08-21T09:28:51;6.43;;;1.38;;
59006;SDS011;44792;52.760;6.726;2023-08-21T09:31:26;4.25;;;1.40;;
59006;SDS011;44792;52.760;6.726;2023-08-21T09:33:58;5.05;;;1.60;;
59006;SDS011;44792;52.760;6.726;2023-08-21T09:36:34;2.92;;;1.15;;
59006;SDS011;44792;52.760;6.726;2023-08-21T09:39:01;3.47;;;1.13;;
59006;SDS011;44792;52.760;6.726;2023-08-21T09:41:28;3.25;;;1.40;;
59006;SDS011;44792;52.760;6.726;2023-08-21T09:43:58;3.53;;;1.30;;
59006;SDS011;44792;52.760;6.726;2023-08-21T09:46:29;6.72;;;1.17;;
59006;SDS011;44792;52.760;6.726;2023-08-21T09:48:54;4.88;;;1.20;;
59006;SDS011;44792;52.760;6.726;2023-08-21T09:51:21;5.25;;;1.75;;
59006;SDS011;44792;52.760;6.726;2023-08-21T09:53:48;5.18;;;1.10;;
59006;SDS011;44792;52.760;6.726;2023-08-21T09:56:14;9.25;;;1.25;;
59006;SDS011;44792;52.760;6.726;2023-08-21T09:58:42;1.23;;;0.60;;
59006;SDS011;44792;52.760;6.726;2023-08-21T10:01:08;2.45;;;0.70;;
59006;SDS011;44792;52.760;6.726;2023-08-21T10:03:39;2.83;;;1.02;;
59006;SDS011;44792;52.760;6.726;2023-08-21T10:06:08;2.60;;;0.90;;
59006;SDS011;44792;52.760;6.726;2023-08-21T10:08:38;3.13;;;0.88;;
59006;SDS011;44792;52.760;6.726;2023-08-21T10:11:08;4.90;;;1.02;;
59006;SDS011;44792;52.760;6.726;2023-08-21T10:13:36;4.68;;;1.27;;
59006;SDS011;44792;52.760;6.726;2023-08-21T10:16:03;4.28;;;1.42;;
59006;SDS011;44792;52.760;6.726;2023-08-21T10:18:34;5.53;;;1.27;;
59006;SDS011;44792;52.760;6.726;2023-08-21T10:21:14;4.03;;;1.30;;
59006;SDS011;44792;52.760;6.726;2023-08-21T10:23:40;5.90;;;1.52;;
59006;SDS011;44792;52.760;6.726;2023-08-21T10:26:06;7.43;;;1.83;;
59006;SDS011;44792;52.760;6.726;2023-08-21T10:33:52;4.40;;;1.25;;
59006;SDS011;44792;52.760;6.726;2023-08-21T10:39:15;3.03;;;1.25;;
59006;SDS011;44792;52.760;6.726;2023-08-21T10:44:49;3.35;;;0.95;;
59006;SDS011;44792;52.760;6.726;2023-08-21T10:49:53;2.25;;;1.00;;
59006;SDS011;44792;52.760;6.726;2023-08-21T10:52:21;9.35;;;1.35;;
59006;SDS011;44792;52.760;6.726;2023-08-21T10:54:52;7.57;;;1.23;;
59006;SDS011;44792;52.760;6.726;2023-08-21T10:57:19;4.85;;;1.40;;
59006;SDS011;44792;52.760;6.726;2023-08-21T10:59:52;2.28;;;0.98;;
59006;SDS011;44792;52.760;6.726;2023-08-21T11:02:18;5.97;;;1.27;;
59006;SDS011;44792;52.760;6.726;2023-08-21T11:04:44;3.08;;;0.98;;
59006;SDS011;44792;52.760;6.726;2023-08-21T11:07:10;1.55;;;0.77;;
59006;SDS011;44792;52.760;6.726;2023-08-21T11:09:37;3.45;;;1.08;;
59006;SDS011;44792;52.760;6.726;2023-08-21T11:12:08;4.32;;;1.33;;
59006;SDS011;44792;52.760;6.726;2023-08-21T11:14:35;2.37;;;1.03;;
59006;SDS011;44792;52.760;6.726;2023-08-21T11:17:01;3.22;;;0.90;;
59006;SDS011;44792;52.760;6.726;2023-08-21T11:19:27;2.00;;;0.95;;
59006;SDS011;44792;52.760;6.726;2023-08-21T11:21:55;3.65;;;1.02;;
59006;SDS011;44792;52.760;6.726;2023-08-21T11:24:20;3.05;;;1.02;;
59006;SDS011;44792;52.760;6.726;2023-08-21T11:26:46;3.17;;;0.80;;
59006;SDS011;44792;52.760;6.726;2023-08-21T11:29:12;3.40;;;1.02;;
59006;SDS011;44792;52.760;6.726;2023-08-21T11:31:38;3.90;;;1.40;;
59006;SDS011;44792;52.760;6.726;2023-08-21T11:34:04;1.75;;;0.90;;
59006;SDS011;44792;52.760;6.726;2023-08-21T11:36:30;5.57;;;1.20;;
59006;SDS011;44792;52.760;6.726;2023-08-21T11:39:03;4.32;;;1.13;;
59006;SDS011;44792;52.760;6.726;2023-08-21T11:41:30;4.72;;;1.27;;
59006;SDS011;44792;52.760;6.726;2023-08-21T11:44:01;3.72;;;1.00;;
59006;SDS011;44792;52.760;6.726;2023-08-21T11:46:28;4.25;;;1.40;;
59006;SDS011;44792;52.760;6.726;2023-08-21T11:48:54;8.52;;;1.33;;
59006;SDS011;44792;52.760;6.726;2023-08-21T11:51:20;3.22;;;1.50;;
59006;SDS011;44792;52.760;6.726;2023-08-21T11:53:46;6.15;;;1.30;;
59006;SDS011;44792;52.760;6.726;2023-08-21T11:56:14;5.50;;;1.70;;
59006;SDS011;44792;52.760;6.726;2023-08-21T11:58:42;6.43;;;1.15;;
59006;SDS011;44792;52.760;6.726;2023-08-21T12:01:20;2.67;;;1.02;;
59006;SDS011;44792;52.760;6.726;2023-08-21T12:03:46;6.28;;;1.40;;
59006;SDS011;44792;52.760;6.726;2023-08-21T12:06:19;3.80;;;1.13;;
59006;SDS011;44792;52.760;6.726;2023-08-21T12:08:45;3.85;;;1.10;;
59006;SDS011;44792;52.760;6.726;2023-08-21T12:11:10;4.70;;;1.27;;
59006;SDS011;44792;52.760;6.726;2023-08-21T12:13:36;3.20;;;1.10;;
59006;SDS011;44792;52.760;6.726;2023-08-21T12:16:02;2.45;;;1.00;;
59006;SDS011;44792;52.760;6.726;2023-08-21T12:18:29;3.53;;;1.02;;
59006;SDS011;44792;52.760;6.726;2023-08-21T12:20:54;8.93;;;1.02;;
59006;SDS011;44792;52.760;6.726;2023-08-21T12:23:20;5.47;;;1.40;;
59006;SDS011;44792;52.760;6.726;2023-08-21T12:25:46;3.92;;;1.20;;
59006;SDS011;44792;52.760;6.726;2023-08-21T12:28:12;3.00;;;0.93;;
59006;SDS011;44792;52.760;6.726;2023-08-21T12:30:38;3.72;;;1.10;;
59006;SDS011;44792;52.760;6.726;2023-08-21T12:33:06;3.25;;;0.95;;
59006;SDS011;44792;52.760;6.726;2023-08-21T12:35:32;3.00;;;1.20;;
59006;SDS011;44792;52.760;6.726;2023-08-21T12:37:58;5.75;;;1.17;;
59006;SDS011;44792;52.760;6.726;2023-08-21T12:40:30;5.97;;;1.13;;
59006;SDS011;44792;52.760;6.726;2023-08-21T12:42:56;2.33;;;0.80;;
59006;SDS011;44792;52.760;6.726;2023-08-21T12:45:22;2.08;;;0.85;;
59006;SDS011;44792;52.760;6.726;2023-08-21T12:47:48;2.15;;;0.82;;
59006;SDS011;44792;52.760;6.726;2023-08-21T12:50:13;3.35;;;0.85;;
59006;SDS011;44792;52.760;6.726;2023-08-21T12:52:39;4.22;;;1.00;;
59006;SDS011;44792;52.760;6.726;2023-08-21T12:55:06;2.08;;;0.77;;
59006;SDS011;44792;52.760;6.726;2023-08-21T12:57:32;9.05;;;1.20;;
59006;SDS011;44792;52.760;6.726;2023-08-21T12:59:58;2.75;;;1.38;;
59006;SDS011;44792;52.760;6.726;2023-08-21T13:02:24;2.92;;;1.13;;
59006;SDS011;44792;52.760;6.726;2023-08-21T13:04:52;3.63;;;1.02;;
59006;SDS011;44792;52.760;6.726;2023-08-21T13:07:18;4.40;;;1.15;;
59006;SDS011;44792;52.760;6.726;2023-08-21T13:09:43;2.75;;;0.82;;
59006;SDS011;44792;52.760;6.726;2023-08-21T13:12:09;3.33;;;0.90;;
59006;SDS011;44792;52.760;6.726;2023-08-21T13:14:35;3.45;;;1.08;;
59006;SDS011;44792;52.760;6.726;2023-08-21T13:17:00;3.70;;;1.00;;
59006;SDS011;44792;52.760;6.726;2023-08-21T13:19:26;3.28;;;1.17;;
59006;SDS011;44792;52.760;6.726;2023-08-21T13:21:52;5.10;;;1.05;;
59006;SDS011;44792;52.760;6.726;2023-08-21T13:24:19;6.03;;;1.27;;
59006;SDS011;44792;52.760;6.726;2023-08-21T13:26:46;2.15;;;0.95;;
59006;SDS011;44792;52.760;6.726;2023-08-21T13:29:11;4.05;;;1.20;;
59006;SDS011;44792;52.760;6.726;2023-08-21T13:31:37;5.63;;;0.90;;
59006;SDS011;44792;52.760;6.726;2023-08-21T13:34:03;3.38;;;1.05;;
59006;SDS011;44792;52.760;6.726;2023-08-21T13:36:29;4.75;;;0.93;;
59006;SDS011;44792;52.760;6.726;2023-08-21T13:38:54;3.38;;;0.93;;
59006;SDS011;44792;52.760;6.726;2023-08-21T13:41:20;4.68;;;0.95;;
59006;SDS011;44792;52.760;6.726;2023-08-21T13:43:46;1.73;;;0.80;;
59006;SDS011;44792;52.760;6.726;2023-08-21T13:46:12;3.55;;;0.98;;
59006;SDS011;44792;52.760;6.726;2023-08-21T13:48:37;5.10;;;1.08;;
59006;SDS011;44792;52.760;6.726;2023-08-21T13:51:03;5.32;;;1.05;;
59006;SDS011;44792;52.760;6.726;2023-08-21T13:53:29;4.50;;;1.13;;
59006;SDS011;44792;52.760;6.726;2023-08-21T13:55:54;4.47;;;1.00;;
59006;SDS011;44792;52.760;6.726;2023-08-21T13:58:20;3.08;;;0.95;;
59006;SDS011;44792;52.760;6.726;2023-08-21T14:00:46;5.57;;;1.00;;
59006;SDS011;44792;52.760;6.726;2023-08-21T14:03:12;5.15;;;0.80;;
59006;SDS011;44792;52.760;6.726;2023-08-21T14:05:37;2.95;;;0.93;;
59006;SDS011;44792;52.760;6.726;2023-08-21T14:08:03;1.27;;;0.77;;
59006;SDS011;44792;52.760;6.726;2023-08-21T14:10:29;4.70;;;1.23;;
59006;SDS011;44792;52.760;6.726;2023-08-21T14:12:55;2.92;;;1.00;;
59006;SDS011;44792;52.760;6.726;2023-08-21T14:15:22;3.75;;;1.13;;
59006;SDS011;44792;52.760;6.726;2023-08-21T14:17:48;4.65;;;0.98;;
59006;SDS011;44792;52.760;6.726;2023-08-21T14:20:14;2.47;;;0.80;;
59006;SDS011;44792;52.760;6.726;2023-08-21T14:22:41;3.85;;;0.77;;
59006;SDS011;44792;52.760;6.726;2023-08-21T14:25:07;5.03;;;0.90;;
59006;SDS011;44792;52.760;6.726;2023-08-21T14:27:33;4.03;;;1.10;;
59006;SDS011;44792;52.760;6.726;2023-08-21T14:29:59;3.47;;;0.85;;
59006;SDS011;44792;52.760;6.726;2023-08-21T14:32:25;4.57;;;1.20;;
59006;SDS011;44792;52.760;6.726;2023-08-21T14:34:51;5.00;;;0.80;;
59006;SDS011;44792;52.760;6.726;2023-08-21T14:37:20;4.47;;;0.82;;
59006;SDS011;44792;52.760;6.726;2023-08-21T14:39:48;8.95;;;1.30;;
59006;SDS011;44792;52.760;6.726;2023-08-21T14:42:14;3.78;;;0.93;;
59006;SDS011;44792;52.760;6.726;2023-08-21T14:44:40;3.50;;;1.05;;
59006;SDS011;44792;52.760;6.726;2023-08-21T14:47:06;3.72;;;1.00;;
59006;SDS011;44792;52.760;6.726;2023-08-21T14:49:32;4.30;;;1.00;;
59006;SDS011;44792;52.760;6.726;2023-08-21T14:51:58;3.47;;;0.82;;
59006;SDS011;44792;52.760;6.726;2023-08-21T14:54:24;6.40;;;1.08;;
59006;SDS011;44792;52.760;6.726;2023-08-21T14:56:50;3.13;;;0.77;;
59006;SDS011;44792;52.760;6.726;2023-08-21T14:59:16;3.20;;;0.70;;
59006;SDS011;44792;52.760;6.726;2023-08-21T15:01:42;3.35;;;0.85;;
59006;SDS011;44792;52.760;6.726;2023-08-21T15:04:08;2.80;;;0.70;;
59006;SDS011;44792;52.760;6.726;2023-08-21T15:06:34;4.38;;;1.15;;
59006;SDS011;44792;52.760;6.726;2023-08-21T15:09:00;5.25;;;0.93;;
59006;SDS011;44792;52.760;6.726;2023-08-21T15:11:27;5.28;;;0.93;;